KDYA

Demopolis Regional Airport

Demopolis, Alabama, USA
METAR KDYA 220535Z AUTO 20006KT 160V240 7SM OVC006 23/22 A2987 RMK AO2 T02330216
Observed Flight Rules
Jun-22 @ 05:35 UTC (11 minutes ago) Instrument Flight Rules
Wind Visibility Clouds
200° at 6 knots 7 miles
  • Overcast at 600' AGL
Temperatures Readings
Current 23°C / 73°F
Dewpoint 22°C / 72°F
Humidity 94%
Altimeter 29.87" Hg
Pressure 1012 hPa
Elevation 34
METAR KDYA 220535Z AUTO 20006KT 160V240 7SM OVC006 23/22 A2987 RMK AO2 T02330216
Observed Flight Rules
Jun-22 @ 05:35 UTC
(11 minutes ago)
IFR
Wind Visibility
200° at 6 knots 7 miles
Clouds
  • Overcast at 600' AGL
Temperature Dewpoint
23°C / 73°F 22°C / 72°F
Humidity Altimeter Pressure
94% 29.87" Hg 1012 hPa